sensor_id;sensor_type;location;lat;lon;timestamp;temperature;humidity
64032;DHT22;50278;47.796;11.968;2022-09-20T00:00:25;8.72;118.99
64032;DHT22;50278;47.796;11.968;2022-09-20T00:02:51;8.70;118.99
64032;DHT22;50278;47.796;11.968;2022-09-20T00:05:17;8.64;118.99
64032;DHT22;50278;47.796;11.968;2022-09-20T00:07:45;8.66;118.99
64032;DHT22;50278;47.796;11.968;2022-09-20T00:10:11;8.56;118.99
64032;DHT22;50278;47.796;11.968;2022-09-20T00:12:37;8.53;118.99
64032;DHT22;50278;47.796;11.968;2022-09-20T00:15:04;8.53;118.99
64032;DHT22;50278;47.796;11.968;2022-09-20T00:17:29;8.60;118.99
64032;DHT22;50278;47.796;11.968;2022-09-20T00:19:55;8.67;118.99
64032;DHT22;50278;47.796;11.968;2022-09-20T00:22:21;8.83;118.99
64032;DHT22;50278;47.796;11.968;2022-09-20T00:24:46;8.92;118.99
64032;DHT22;50278;47.796;11.968;2022-09-20T00:27:12;8.89;118.99
64032;DHT22;50278;47.796;11.968;2022-09-20T00:29:37;8.93;118.99
64032;DHT22;50278;47.796;11.968;2022-09-20T00:32:03;8.82;118.99
64032;DHT22;50278;47.796;11.968;2022-09-20T00:34:29;8.81;118.99
64032;DHT22;50278;47.796;11.968;2022-09-20T00:37:13;8.74;118.99
64032;DHT22;50278;47.796;11.968;2022-09-20T00:39:38;8.81;118.99
64032;DHT22;50278;47.796;11.968;2022-09-20T00:42:04;8.85;118.99
64032;DHT22;50278;47.796;11.968;2022-09-20T00:50:41;8.81;118.99
64032;DHT22;50278;47.796;11.968;2022-09-20T00:53:19;8.76;118.99
64032;DHT22;50278;47.796;11.968;2022-09-20T00:55:52;8.78;118.99
64032;DHT22;50278;47.796;11.968;2022-09-20T00:58:20;8.89;118.99
64032;DHT22;50278;47.796;11.968;2022-09-20T01:00:48;8.94;118.99
64032;DHT22;50278;47.796;11.968;2022-09-20T01:03:16;8.95;118.99
64032;DHT22;50278;47.796;11.968;2022-09-20T01:05:45;8.91;118.99
64032;DHT22;50278;47.796;11.968;2022-09-20T01:08:10;8.80;118.99
64032;DHT22;50278;47.796;11.968;2022-09-20T01:10:37;8.79;118.99
64032;DHT22;50278;47.796;11.968;2022-09-20T01:13:03;8.80;118.99
64032;DHT22;50278;47.796;11.968;2022-09-20T01:15:30;8.78;118.99
64032;DHT22;50278;47.796;11.968;2022-09-20T01:17:58;8.67;118.99
64032;DHT22;50278;47.796;11.968;2022-09-20T01:20:36;8.66;118.99
64032;DHT22;50278;47.796;11.968;2022-09-20T01:23:28;8.68;118.99
64032;DHT22;50278;47.796;11.968;2022-09-20T01:28:54;8.53;118.99
64032;DHT22;50278;47.796;11.968;2022-09-20T01:31:25;8.57;118.99
64032;DHT22;50278;47.796;11.968;2022-09-20T01:34:03;8.57;118.99
64032;DHT22;50278;47.796;11.968;2022-09-20T01:36:52;8.61;118.99
64032;DHT22;50278;47.796;11.968;2022-09-20T01:42:36;8.55;118.99
64032;DHT22;50278;47.796;11.968;2022-09-20T01:47:49;8.41;118.99
64032;DHT22;50278;47.796;11.968;2022-09-20T01:50:31;8.42;118.99
64032;DHT22;50278;47.796;11.968;2022-09-20T01:56:14;8.23;118.99
64032;DHT22;50278;47.796;11.968;2022-09-20T02:37:39;8.77;118.99
64032;DHT22;50278;47.796;11.968;2022-09-20T02:45:43;8.95;118.99
64032;DHT22;50278;47.796;11.968;2022-09-20T02:48:14;8.87;118.99
64032;DHT22;50278;47.796;11.968;2022-09-20T02:50:55;8.75;118.99
64032;DHT22;50278;47.796;11.968;2022-09-20T02:53:44;8.60;118.99
64032;DHT22;50278;47.796;11.968;2022-09-20T02:56:37;8.34;118.99
64032;DHT22;50278;47.796;11.968;2022-09-20T02:59:30;8.21;118.99
64032;DHT22;50278;47.796;11.968;2022-09-20T03:02:14;8.17;118.99
64032;DHT22;50278;47.796;11.968;2022-09-20T03:05:17;8.12;118.99
64032;DHT22;50278;47.796;11.968;2022-09-20T03:08:10;8.04;118.99
64032;DHT22;50278;47.796;11.968;2022-09-20T03:11:11;7.99;118.99
64032;DHT22;50278;47.796;11.968;2022-09-20T03:20:07;7.84;118.99
64032;DHT22;50278;47.796;11.968;2022-09-20T03:22:27;7.65;118.99
64032;DHT22;50278;47.796;11.968;2022-09-20T03:31:13;7.42;118.99
64032;DHT22;50278;47.796;11.968;2022-09-20T03:47:01;7.38;118.99
64032;DHT22;50278;47.796;11.968;2022-09-20T03:52:52;7.52;118.99
64032;DHT22;50278;47.796;11.968;2022-09-20T03:55:58;7.48;118.99
64032;DHT22;50278;47.796;11.968;2022-09-20T04:07:16;7.46;118.99
64032;DHT22;50278;47.796;11.968;2022-09-20T04:10:15;7.57;118.99
64032;DHT22;50278;47.796;11.968;2022-09-20T04:12:44;7.78;118.99
64032;DHT22;50278;47.796;11.968;2022-09-20T04:18:28;8.19;118.99
64032;DHT22;50278;47.796;11.968;2022-09-20T04:21:22;8.09;118.99
64032;DHT22;50278;47.796;11.968;2022-09-20T04:26:35;7.98;118.99
64032;DHT22;50278;47.796;11.968;2022-09-20T04:35:11;8.09;118.99
64032;DHT22;50278;47.796;11.968;2022-09-20T04:37:58;8.14;118.99
64032;DHT22;50278;47.796;11.968;2022-09-20T04:41:06;8.13;118.99
64032;DHT22;50278;47.796;11.968;2022-09-20T05:09:05;8.26;118.99
64032;DHT22;50278;47.796;11.968;2022-09-20T05:22:35;8.57;118.99
64032;DHT22;50278;47.796;11.968;2022-09-20T05:27:55;8.62;118.99
64032;DHT22;50278;47.796;11.968;2022-09-20T05:30:43;8.70;118.99
64032;DHT22;50278;47.796;11.968;2022-09-20T05:41:03;8.67;118.99
64032;DHT22;50278;47.796;11.968;2022-09-20T05:43:46;8.71;118.99
64032;DHT22;50278;47.796;11.968;2022-09-20T05:48:56;8.85;118.99
64032;DHT22;50278;47.796;11.968;2022-09-20T05:59:41;9.21;118.99
64032;DHT22;50278;47.796;11.968;2022-09-20T06:05:02;9.36;118.99
64032;DHT22;50278;47.796;11.968;2022-09-20T06:08:02;9.49;118.99
64032;DHT22;50278;47.796;11.968;2022-09-20T06:16:06;9.45;118.99
64032;DHT22;50278;47.796;11.968;2022-09-20T06:18:44;9.39;118.99
64032;DHT22;50278;47.796;11.968;2022-09-20T06:24:04;9.57;118.99
64032;DHT22;50278;47.796;11.968;2022-09-20T06:26:37;9.51;118.99
64032;DHT22;50278;47.796;11.968;2022-09-20T06:29:05;9.61;118.99
64032;DHT22;50278;47.796;11.968;2022-09-20T06:31:35;9.68;118.99
64032;DHT22;50278;47.796;11.968;2022-09-20T06:34:07;9.67;118.99
64032;DHT22;50278;47.796;11.968;2022-09-20T06:36:36;9.72;118.99
64032;DHT22;50278;47.796;11.968;2022-09-20T06:39:52;9.89;118.99
64032;DHT22;50278;47.796;11.968;2022-09-20T06:42:39;9.91;118.99
64032;DHT22;50278;47.796;11.968;2022-09-20T06:45:04;9.99;118.99
64032;DHT22;50278;47.796;11.968;2022-09-20T06:47:30;10.01;118.99
64032;DHT22;50278;47.796;11.968;2022-09-20T06:49:55;10.10;118.99
64032;DHT22;50278;47.796;11.968;2022-09-20T06:52:23;10.19;118.99
64032;DHT22;50278;47.796;11.968;2022-09-20T06:54:50;10.27;118.99
64032;DHT22;50278;47.796;11.968;2022-09-20T06:57:32;10.34;118.99
64032;DHT22;50278;47.796;11.968;2022-09-20T06:59:59;10.43;118.99
64032;DHT22;50278;47.796;11.968;2022-09-20T07:02:25;10.51;118.99
64032;DHT22;50278;47.796;11.968;2022-09-20T07:04:51;10.55;118.99
64032;DHT22;50278;47.796;11.968;2022-09-20T07:07:19;10.69;118.99
64032;DHT22;50278;47.796;11.968;2022-09-20T07:09:45;10.82;118.99
64032;DHT22;50278;47.796;11.968;2022-09-20T07:12:10;10.89;118.99
64032;DHT22;50278;47.796;11.968;2022-09-20T07:14:37;11.01;118.99
64032;DHT22;50278;47.796;11.968;2022-09-20T07:17:03;10.98;118.99
64032;DHT22;50278;47.796;11.968;2022-09-20T07:19:28;11.27;118.99
64032;DHT22;50278;47.796;11.968;2022-09-20T07:21:54;11.10;118.99
64032;DHT22;50278;47.796;11.968;2022-09-20T07:24:20;11.10;118.99
64032;DHT22;50278;47.796;11.968;2022-09-20T07:26:59;11.13;118.99
64032;DHT22;50278;47.796;11.968;2022-09-20T07:29:26;11.15;118.99
64032;DHT22;50278;47.796;11.968;2022-09-20T07:31:52;11.38;118.99
64032;DHT22;50278;47.796;11.968;2022-09-20T07:34:17;11.33;118.99
64032;DHT22;50278;47.796;11.968;2022-09-20T07:36:48;11.37;118.99
64032;DHT22;50278;47.796;11.968;2022-09-20T07:39:15;11.37;118.99
64032;DHT22;50278;47.796;11.968;2022-09-20T07:41:41;11.64;118.99
64032;DHT22;50278;47.796;11.968;2022-09-20T07:44:09;11.70;118.99
64032;DHT22;50278;47.796;11.968;2022-09-20T07:46:50;11.72;118.99
64032;DHT22;50278;47.796;11.968;2022-09-20T07:49:16;11.68;118.99
64032;DHT22;50278;47.796;11.968;2022-09-20T07:51:42;11.45;118.99
64032;DHT22;50278;47.796;11.968;2022-09-20T07:54:08;11.72;118.99
64032;DHT22;50278;47.796;11.968;2022-09-20T07:56:33;11.73;118.99
64032;DHT22;50278;47.796;11.968;2022-09-20T07:58:59;11.77;118.99
64032;DHT22;50278;47.796;11.968;2022-09-20T08:01:24;11.57;118.99
64032;DHT22;50278;47.796;11.968;2022-09-20T08:03:50;11.40;118.99
64032;DHT22;50278;47.796;11.968;2022-09-20T08:06:16;11.26;118.99
64032;DHT22;50278;47.796;11.968;2022-09-20T08:08:43;11.34;118.99
64032;DHT22;50278;47.796;11.968;2022-09-20T08:11:11;11.34;118.99
64032;DHT22;50278;47.796;11.968;2022-09-20T08:13:39;11.20;118.99
64032;DHT22;50278;47.796;11.968;2022-09-20T08:16:07;11.30;118.99
64032;DHT22;50278;47.796;11.968;2022-09-20T08:18:33;11.73;118.99
64032;DHT22;50278;47.796;11.968;2022-09-20T08:21:07;11.88;118.99
64032;DHT22;50278;47.796;11.968;2022-09-20T08:23:41;12.56;118.99
64032;DHT22;50278;47.796;11.968;2022-09-20T08:26:11;12.80;118.99
64032;DHT22;50278;47.796;11.968;2022-09-20T08:28:38;12.88;118.99
64032;DHT22;50278;47.796;11.968;2022-09-20T08:31:08;13.04;118.99
64032;DHT22;50278;47.796;11.968;2022-09-20T08:33:35;13.03;118.99
64032;DHT22;50278;47.796;11.968;2022-09-20T08:36:04;12.56;118.99
64032;DHT22;50278;47.796;11.968;2022-09-20T08:38:31;12.35;118.99
64032;DHT22;50278;47.796;11.968;2022-09-20T08:41:02;12.40;118.99
64032;DHT22;50278;47.796;11.968;2022-09-20T08:43:36;12.72;118.99
64032;DHT22;50278;47.796;11.968;2022-09-20T08:46:05;12.61;118.99
64032;DHT22;50278;47.796;11.968;2022-09-20T08:48:33;12.73;118.99
64032;DHT22;50278;47.796;11.968;2022-09-20T08:51:03;12.78;118.99
64032;DHT22;50278;47.796;11.968;2022-09-20T08:53:31;12.92;118.99
64032;DHT22;50278;47.796;11.968;2022-09-20T08:55:58;12.97;118.99
64032;DHT22;50278;47.796;11.968;2022-09-20T08:58:25;12.60;118.99
64032;DHT22;50278;47.796;11.968;2022-09-20T09:00:52;12.72;118.99
64032;DHT22;50278;47.796;11.968;2022-09-20T09:03:18;12.92;118.99
64032;DHT22;50278;47.796;11.968;2022-09-20T09:05:46;12.13;118.99
64032;DHT22;50278;47.796;11.968;2022-09-20T09:08:15;11.26;118.99
64032;DHT22;50278;47.796;11.968;2022-09-20T09:10:44;10.66;118.99
64032;DHT22;50278;47.796;11.968;2022-09-20T09:13:23;10.20;118.99
64032;DHT22;50278;47.796;11.968;2022-09-20T09:16:01;9.49;118.99
64032;DHT22;50278;47.796;11.968;2022-09-20T09:18:39;8.91;118.99
64032;DHT22;50278;47.796;11.968;2022-09-20T09:21:06;8.58;118.99
64032;DHT22;50278;47.796;11.968;2022-09-20T09:23:39;7.98;118.99
64032;DHT22;50278;47.796;11.968;2022-09-20T09:26:14;8.05;118.99
64032;DHT22;50278;47.796;11.968;2022-09-20T09:28:40;8.30;118.99
64032;DHT22;50278;47.796;11.968;2022-09-20T09:31:32;8.33;118.99
64032;DHT22;50278;47.796;11.968;2022-09-20T09:33:57;8.24;118.99
64032;DHT22;50278;47.796;11.968;2022-09-20T09:36:24;8.11;118.99
64032;DHT22;50278;47.796;11.968;2022-09-20T09:39:23;8.12;118.99
64032;DHT22;50278;47.796;11.968;2022-09-20T09:41:49;8.02;118.99
64032;DHT22;50278;47.796;11.968;2022-09-20T09:46:47;8.44;118.99
64032;DHT22;50278;47.796;11.968;2022-09-20T09:52:12;8.46;118.99
64032;DHT22;50278;47.796;11.968;2022-09-20T09:54:53;8.64;118.99
64032;DHT22;50278;47.796;11.968;2022-09-20T09:57:58;8.83;118.99
64032;DHT22;50278;47.796;11.968;2022-09-20T10:00:29;9.11;118.99
64032;DHT22;50278;47.796;11.968;2022-09-20T10:05:46;9.27;118.99
64032;DHT22;50278;47.796;11.968;2022-09-20T10:11:47;9.64;118.99
64032;DHT22;50278;47.796;11.968;2022-09-20T10:19:55;9.95;118.99
64032;DHT22;50278;47.796;11.968;2022-09-20T10:22:32;10.11;118.99
64032;DHT22;50278;47.796;11.968;2022-09-20T10:25:35;10.37;118.99
64032;DHT22;50278;47.796;11.968;2022-09-20T10:28:20;11.13;118.99
64032;DHT22;50278;47.796;11.968;2022-09-20T10:33:34;11.99;118.99
64032;DHT22;50278;47.796;11.968;2022-09-20T10:36:13;11.79;118.99
64032;DHT22;50278;47.796;11.968;2022-09-20T10:38:56;11.28;118.99
64032;DHT22;50278;47.796;11.968;2022-09-20T10:41:40;10.55;118.99
64032;DHT22;50278;47.796;11.968;2022-09-20T10:44:44;10.24;118.99
64032;DHT22;50278;47.796;11.968;2022-09-20T10:47:16;10.19;118.99
64032;DHT22;50278;47.796;11.968;2022-09-20T10:52:33;10.30;118.99
64032;DHT22;50278;47.796;11.968;2022-09-20T11:03:47;11.68;118.99
64032;DHT22;50278;47.796;11.968;2022-09-20T11:09:16;12.65;118.99
64032;DHT22;50278;47.796;11.968;2022-09-20T11:11:48;12.78;118.99
64032;DHT22;50278;47.796;11.968;2022-09-20T11:14:40;12.21;118.99
64032;DHT22;50278;47.796;11.968;2022-09-20T11:17:21;12.61;118.99
64032;DHT22;50278;47.796;11.968;2022-09-20T11:25:11;12.81;118.99
64032;DHT22;50278;47.796;11.968;2022-09-20T11:27:46;12.42;118.99
64032;DHT22;50278;47.796;11.968;2022-09-20T11:30:16;12.84;118.99
64032;DHT22;50278;47.796;11.968;2022-09-20T11:32:46;13.05;118.99
64032;DHT22;50278;47.796;11.968;2022-09-20T11:35:21;13.15;118.99
64032;DHT22;50278;47.796;11.968;2022-09-20T11:40:53;13.15;118.99
64032;DHT22;50278;47.796;11.968;2022-09-20T11:43:21;12.89;118.99
64032;DHT22;50278;47.796;11.968;2022-09-20T11:45:53;12.51;118.99
64032;DHT22;50278;47.796;11.968;2022-09-20T11:48:24;12.16;118.99
64032;DHT22;50278;47.796;11.968;2022-09-20T11:51:15;12.29;118.99
64032;DHT22;50278;47.796;11.968;2022-09-20T11:56:27;12.36;118.99
64032;DHT22;50278;47.796;11.968;2022-09-20T11:58:55;11.76;118.99
64032;DHT22;50278;47.796;11.968;2022-09-20T12:01:38;11.58;118.99
64032;DHT22;50278;47.796;11.968;2022-09-20T12:04:11;11.66;118.99
64032;DHT22;50278;47.796;11.968;2022-09-20T12:06:39;11.61;118.99
64032;DHT22;50278;47.796;11.968;2022-09-20T12:09:23;11.68;118.99
64032;DHT22;50278;47.796;11.968;2022-09-20T12:11:49;12.47;118.99
64032;DHT22;50278;47.796;11.968;2022-09-20T12:14:27;13.03;118.99
64032;DHT22;50278;47.796;11.968;2022-09-20T12:16:54;14.09;118.99
64032;DHT22;50278;47.796;11.968;2022-09-20T12:24:29;15.81;118.99
64032;DHT22;50278;47.796;11.968;2022-09-20T12:27:03;16.67;118.99
64032;DHT22;50278;47.796;11.968;2022-09-20T12:32:01;15.81;118.99
64032;DHT22;50278;47.796;11.968;2022-09-20T12:34:33;14.93;118.99
64032;DHT22;50278;47.796;11.968;2022-09-20T12:39:35;14.22;118.99
64032;DHT22;50278;47.796;11.968;2022-09-20T12:42:25;14.39;118.99
64032;DHT22;50278;47.796;11.968;2022-09-20T12:49:59;13.96;118.99
64032;DHT22;50278;47.796;11.968;2022-09-20T13:08:40;13.61;118.99
64032;DHT22;50278;47.796;11.968;2022-09-20T13:11:41;13.48;118.99
64032;DHT22;50278;47.796;11.968;2022-09-20T13:16:52;13.64;118.99
64032;DHT22;50278;47.796;11.968;2022-09-20T13:19:37;13.90;118.99
64032;DHT22;50278;47.796;11.968;2022-09-20T13:22:18;14.15;118.99
64032;DHT22;50278;47.796;11.968;2022-09-20T13:25:14;13.35;118.99
64032;DHT22;50278;47.796;11.968;2022-09-20T13:27:46;13.46;118.99
64032;DHT22;50278;47.796;11.968;2022-09-20T13:30:20;13.17;118.99
64032;DHT22;50278;47.796;11.968;2022-09-20T13:32:47;13.11;118.99
64032;DHT22;50278;47.796;11.968;2022-09-20T13:35:18;13.20;118.99
64032;DHT22;50278;47.796;11.968;2022-09-20T13:43:01;13.34;118.99
64032;DHT22;50278;47.796;11.968;2022-09-20T13:45:27;13.23;118.99
64032;DHT22;50278;47.796;11.968;2022-09-20T13:47:53;13.70;118.99
64032;DHT22;50278;47.796;11.968;2022-09-20T13:50:27;13.70;118.99
64032;DHT22;50278;47.796;11.968;2022-09-20T13:52:58;13.99;118.99
64032;DHT22;50278;47.796;11.968;2022-09-20T13:55:35;14.60;118.99
64032;DHT22;50278;47.796;11.968;2022-09-20T13:58:05;14.95;118.99
64032;DHT22;50278;47.796;11.968;2022-09-20T14:00:32;14.92;118.99
64032;DHT22;50278;47.796;11.968;2022-09-20T14:03:00;15.10;118.99
64032;DHT22;50278;47.796;11.968;2022-09-20T14:05:28;14.99;118.99
64032;DHT22;50278;47.796;11.968;2022-09-20T14:07:55;14.30;118.99
64032;DHT22;50278;47.796;11.968;2022-09-20T14:10:36;13.71;118.99
64032;DHT22;50278;47.796;11.968;2022-09-20T14:13:06;13.37;118.99
64032;DHT22;50278;47.796;11.968;2022-09-20T14:15:37;13.35;118.99
64032;DHT22;50278;47.796;11.968;2022-09-20T14:18:04;13.21;118.99
64032;DHT22;50278;47.796;11.968;2022-09-20T14:20:32;13.31;118.99
64032;DHT22;50278;47.796;11.968;2022-09-20T14:22:59;13.17;118.99
64032;DHT22;50278;47.796;11.968;2022-09-20T14:25:26;13.02;118.99
64032;DHT22;50278;47.796;11.968;2022-09-20T14:28:05;13.00;118.99
64032;DHT22;50278;47.796;11.968;2022-09-20T14:30:34;12.94;118.99
64032;DHT22;50278;47.796;11.968;2022-09-20T14:33:02;13.09;118.99
64032;DHT22;50278;47.796;11.968;2022-09-20T14:35:30;13.03;118.99
64032;DHT22;50278;47.796;11.968;2022-09-20T14:38:06;12.88;118.99
64032;DHT22;50278;47.796;11.968;2022-09-20T14:40:43;13.16;118.99
64032;DHT22;50278;47.796;11.968;2022-09-20T14:43:29;13.38;118.99
64032;DHT22;50278;47.796;11.968;2022-09-20T14:46:00;13.45;118.99
64032;DHT22;50278;47.796;11.968;2022-09-20T14:48:33;13.30;118.99
64032;DHT22;50278;47.796;11.968;2022-09-20T14:53:42;12.91;118.99
64032;DHT22;50278;47.796;11.968;2022-09-20T14:56:10;12.62;118.99
64032;DHT22;50278;47.796;11.968;2022-09-20T15:01:31;12.65;118.99
64032;DHT22;50278;47.796;11.968;2022-09-20T15:03:57;12.91;118.99
64032;DHT22;50278;47.796;11.968;2022-09-20T15:06:23;12.94;118.99
64032;DHT22;50278;47.796;11.968;2022-09-20T15:08:49;12.96;118.99
64032;DHT22;50278;47.796;11.968;2022-09-20T15:11:16;13.09;118.99
64032;DHT22;50278;47.796;11.968;2022-09-20T15:13:42;13.29;118.99
64032;DHT22;50278;47.796;11.968;2022-09-20T15:16:09;13.25;118.99
64032;DHT22;50278;47.796;11.968;2022-09-20T15:18:40;13.50;118.99
64032;DHT22;50278;47.796;11.968;2022-09-20T15:21:06;13.26;118.99
64032;DHT22;50278;47.796;11.968;2022-09-20T15:23:31;13.41;118.99
64032;DHT22;50278;47.796;11.968;2022-09-20T15:25:57;13.36;118.99
64032;DHT22;50278;47.796;11.968;2022-09-20T15:28:24;13.01;118.99
64032;DHT22;50278;47.796;11.968;2022-09-20T15:30:51;12.95;118.99
64032;DHT22;50278;47.796;11.968;2022-09-20T15:33:18;12.78;118.99
64032;DHT22;50278;47.796;11.968;2022-09-20T15:35:45;13.04;118.99
64032;DHT22;50278;47.796;11.968;2022-09-20T15:38:12;12.86;118.99
64032;DHT22;50278;47.796;11.968;2022-09-20T15:40:42;12.73;118.99
64032;DHT22;50278;47.796;11.968;2022-09-20T15:43:11;12.60;118.99
64032;DHT22;50278;47.796;11.968;2022-09-20T15:45:55;12.30;118.99
64032;DHT22;50278;47.796;11.968;2022-09-20T15:48:24;12.48;118.99
64032;DHT22;50278;47.796;11.968;2022-09-20T15:51:11;12.37;118.99
64032;DHT22;50278;47.796;11.968;2022-09-20T15:53:42;12.29;118.99
64032;DHT22;50278;47.796;11.968;2022-09-20T15:58:43;12.40;118.99
64032;DHT22;50278;47.796;11.968;2022-09-20T16:01:10;12.13;118.99
64032;DHT22;50278;47.796;11.968;2022-09-20T16:03:35;12.21;118.99
64032;DHT22;50278;47.796;11.968;2022-09-20T16:06:05;12.30;118.99
64032;DHT22;50278;47.796;11.968;2022-09-20T16:08:35;12.22;118.99
64032;DHT22;50278;47.796;11.968;2022-09-20T16:11:02;12.27;118.99
64032;DHT22;50278;47.796;11.968;2022-09-20T16:13:28;12.12;118.99
64032;DHT22;50278;47.796;11.968;2022-09-20T16:16:00;12.13;118.99
64032;DHT22;50278;47.796;11.968;2022-09-20T16:18:27;12.02;118.99
64032;DHT22;50278;47.796;11.968;2022-09-20T16:21:14;11.90;118.99
64032;DHT22;50278;47.796;11.968;2022-09-20T16:23:50;11.77;118.99
64032;DHT22;50278;47.796;11.968;2022-09-20T16:26:17;11.70;118.99
64032;DHT22;50278;47.796;11.968;2022-09-20T16:28:44;11.63;118.99
64032;DHT22;50278;47.796;11.968;2022-09-20T16:31:36;11.54;118.99
64032;DHT22;50278;47.796;11.968;2022-09-20T16:34:20;11.51;118.99
64032;DHT22;50278;47.796;11.968;2022-09-20T16:36:51;11.61;118.99
64032;DHT22;50278;47.796;11.968;2022-09-20T16:39:19;11.60;118.99
64032;DHT22;50278;47.796;11.968;2022-09-20T16:41:45;11.27;118.99
64032;DHT22;50278;47.796;11.968;2022-09-20T16:44:12;11.34;118.99
64032;DHT22;50278;47.796;11.968;2022-09-20T16:46:38;11.23;118.99
64032;DHT22;50278;47.796;11.968;2022-09-20T16:49:06;11.20;118.99
64032;DHT22;50278;47.796;11.968;2022-09-20T16:51:34;11.08;118.99
64032;DHT22;50278;47.796;11.968;2022-09-20T16:54:05;11.10;118.99
64032;DHT22;50278;47.796;11.968;2022-09-20T16:56:33;10.95;118.99
64032;DHT22;50278;47.796;11.968;2022-09-20T16:59:00;10.70;118.99
64032;DHT22;50278;47.796;11.968;2022-09-20T17:01:25;10.67;118.99
64032;DHT22;50278;47.796;11.968;2022-09-20T17:03:51;10.64;118.99
64032;DHT22;50278;47.796;11.968;2022-09-20T17:06:17;10.52;118.99
64032;DHT22;50278;47.796;11.968;2022-09-20T17:08:43;10.39;118.99
64032;DHT22;50278;47.796;11.968;2022-09-20T17:11:19;10.28;118.99
64032;DHT22;50278;47.796;11.968;2022-09-20T17:13:47;10.21;118.99
64032;DHT22;50278;47.796;11.968;2022-09-20T17:16:17;10.34;118.99
64032;DHT22;50278;47.796;11.968;2022-09-20T17:18:43;10.16;118.99
64032;DHT22;50278;47.796;11.968;2022-09-20T17:21:14;9.88;118.99
64032;DHT22;50278;47.796;11.968;2022-09-20T17:23:41;9.99;118.99
64032;DHT22;50278;47.796;11.968;2022-09-20T17:26:11;9.89;118.99
64032;DHT22;50278;47.796;11.968;2022-09-20T17:28:43;9.50;118.99
64032;DHT22;50278;47.796;11.968;2022-09-20T17:31:11;9.68;118.99
64032;DHT22;50278;47.796;11.968;2022-09-20T17:33:37;9.64;118.99
64032;DHT22;50278;47.796;11.968;2022-09-20T17:36:04;9.59;118.99
64032;DHT22;50278;47.796;11.968;2022-09-20T17:38:31;9.63;118.99
64032;DHT22;50278;47.796;11.968;2022-09-20T17:41:10;9.62;118.99
64032;DHT22;50278;47.796;11.968;2022-09-20T17:43:37;9.51;118.99
64032;DHT22;50278;47.796;11.968;2022-09-20T17:46:20;9.50;118.99
64032;DHT22;50278;47.796;11.968;2022-09-20T17:48:51;9.37;118.99
64032;DHT22;50278;47.796;11.968;2022-09-20T17:51:21;9.54;118.99
64032;DHT22;50278;47.796;11.968;2022-09-20T17:53:47;9.62;118.99
64032;DHT22;50278;47.796;11.968;2022-09-20T17:56:13;9.92;118.99
64032;DHT22;50278;47.796;11.968;2022-09-20T17:58:39;9.68;118.99
64032;DHT22;50278;47.796;11.968;2022-09-20T18:01:11;9.61;118.99
64032;DHT22;50278;47.796;11.968;2022-09-20T18:03:42;9.57;118.99
64032;DHT22;50278;47.796;11.968;2022-09-20T18:06:34;9.57;118.99
64032;DHT22;50278;47.796;11.968;2022-09-20T18:09:00;9.61;118.99
64032;DHT22;50278;47.796;11.968;2022-09-20T18:11:36;9.55;118.99
64032;DHT22;50278;47.796;11.968;2022-09-20T18:14:04;9.69;118.99
64032;DHT22;50278;47.796;11.968;2022-09-20T18:16:31;9.52;118.99
64032;DHT22;50278;47.796;11.968;2022-09-20T18:18:58;9.54;118.99
64032;DHT22;50278;47.796;11.968;2022-09-20T18:21:29;9.57;118.99
64032;DHT22;50278;47.796;11.968;2022-09-20T18:23:55;9.81;118.99
64032;DHT22;50278;47.796;11.968;2022-09-20T18:26:27;9.69;118.99
64032;DHT22;50278;47.796;11.968;2022-09-20T18:29:20;9.56;118.99
64032;DHT22;50278;47.796;11.968;2022-09-20T18:31:51;9.47;118.99
64032;DHT22;50278;47.796;11.968;2022-09-20T18:34:20;9.45;118.99
64032;DHT22;50278;47.796;11.968;2022-09-20T18:36:56;9.55;118.99
64032;DHT22;50278;47.796;11.968;2022-09-20T18:39:23;9.35;118.99
64032;DHT22;50278;47.796;11.968;2022-09-20T18:41:50;9.16;118.99
64032;DHT22;50278;47.796;11.968;2022-09-20T18:44:17;9.39;118.99
64032;DHT22;50278;47.796;11.968;2022-09-20T18:46:44;9.21;118.99
64032;DHT22;50278;47.796;11.968;2022-09-20T18:49:11;9.12;118.99
64032;DHT22;50278;47.796;11.968;2022-09-20T18:51:39;9.07;118.99
64032;DHT22;50278;47.796;11.968;2022-09-20T18:54:04;8.96;118.99
64032;DHT22;50278;47.796;11.968;2022-09-20T18:56:32;8.85;118.99
64032;DHT22;50278;47.796;11.968;2022-09-20T18:59:00;8.72;118.99
64032;DHT22;50278;47.796;11.968;2022-09-20T19:14:59;8.22;118.99
64032;DHT22;50278;47.796;11.968;2022-09-20T19:20:14;8.23;118.99
64032;DHT22;50278;47.796;11.968;2022-09-20T19:23:00;8.13;118.99
64032;DHT22;50278;47.796;11.968;2022-09-20T19:28:02;8.02;118.99
64032;DHT22;50278;47.796;11.968;2022-09-20T19:30:28;8.12;118.99
64032;DHT22;50278;47.796;11.968;2022-09-20T19:32:53;8.12;118.99
64032;DHT22;50278;47.796;11.968;2022-09-20T19:35:25;8.14;118.99
64032;DHT22;50278;47.796;11.968;2022-09-20T19:38:12;8.05;118.99
64032;DHT22;50278;47.796;11.968;2022-09-20T19:41:23;8.05;118.99
64032;DHT22;50278;47.796;11.968;2022-09-20T19:49:46;8.15;118.99
64032;DHT22;50278;47.796;11.968;2022-09-20T19:52:14;8.17;118.99
64032;DHT22;50278;47.796;11.968;2022-09-20T19:54:40;8.16;118.99
64032;DHT22;50278;47.796;11.968;2022-09-20T19:57:21;8.13;118.99
64032;DHT22;50278;47.796;11.968;2022-09-20T19:59:48;8.15;118.99
64032;DHT22;50278;47.796;11.968;2022-09-20T20:02:16;8.21;118.99
64032;DHT22;50278;47.796;11.968;2022-09-20T20:04:43;8.27;118.99
64032;DHT22;50278;47.796;11.968;2022-09-20T20:15:27;8.23;118.99
64032;DHT22;50278;47.796;11.968;2022-09-20T20:23:37;8.41;118.99
64032;DHT22;50278;47.796;11.968;2022-09-20T20:26:07;8.55;118.99
64032;DHT22;50278;47.796;11.968;2022-09-20T20:28:35;8.51;118.99
64032;DHT22;50278;47.796;11.968;2022-09-20T20:31:02;8.60;118.99
64032;DHT22;50278;47.796;11.968;2022-09-20T20:33:29;8.63;118.99
64032;DHT22;50278;47.796;11.968;2022-09-20T20:35:58;8.73;118.99
64032;DHT22;50278;47.796;11.968;2022-09-20T20:38:26;8.78;118.99
64032;DHT22;50278;47.796;11.968;2022-09-20T20:41:01;8.71;118.99
64032;DHT22;50278;47.796;11.968;2022-09-20T20:43:33;8.75;118.99
64032;DHT22;50278;47.796;11.968;2022-09-20T20:46:05;8.73;118.99
64032;DHT22;50278;47.796;11.968;2022-09-20T20:48:33;8.72;118.99
64032;DHT22;50278;47.796;11.968;2022-09-20T20:53:36;8.75;118.99